createdAt,value
2022-10-09T00:01:47.946Z,69.63
2022-10-09T00:04:19.655Z,69.55
2022-10-09T00:06:51.416Z,69.57
2022-10-09T00:09:26.254Z,69.57
2022-10-09T00:11:57.915Z,69.59
2022-10-09T00:14:29.703Z,69.77
2022-10-09T00:17:01.427Z,69.65
2022-10-09T00:19:35.802Z,69.63
2022-10-09T00:22:07.490Z,69.69
2022-10-09T00:24:39.191Z,69.81
2022-10-09T00:27:10.898Z,69.81
2022-10-09T00:29:42.595Z,69.86
2022-10-09T00:32:17.811Z,70.27
2022-10-09T00:34:50.717Z,70.56
2022-10-09T00:37:24.387Z,70.70
2022-10-09T00:39:56.137Z,70.63
2022-10-09T00:42:27.832Z,70.36
2022-10-09T00:45:02.647Z,70.31
2022-10-09T00:47:49.367Z,70.60
2022-10-09T00:50:38.499Z,70.42
2022-10-09T00:53:15.788Z,70.31
2022-10-09T00:55:47.671Z,69.94
2022-10-09T00:58:19.796Z,70.18
2022-10-09T01:00:54.746Z,70.17
2022-10-09T01:03:26.336Z,69.96
2022-10-09T01:06:52.311Z,70.02
2022-10-09T01:09:32.404Z,69.99
2022-10-09T01:12:39.204Z,70.43
2022-10-09T01:15:27.684Z,70.55
2022-10-09T01:18:30.954Z,70.26
2022-10-09T01:21:18.244Z,70.71
2022-10-09T01:24:31.949Z,70.89
2022-10-09T01:27:09.166Z,70.72
2022-10-09T01:29:55.432Z,70.77
2022-10-09T01:32:37.460Z,70.59
2022-10-09T01:35:12.486Z,70.56
2022-10-09T01:37:48.029Z,70.77
2022-10-09T01:40:21.367Z,70.26
2022-10-09T01:42:53.477Z,70.58
2022-10-09T01:45:39.173Z,70.89
2022-10-09T01:48:23.750Z,70.29
2022-10-09T01:51:01.812Z,70.72
2022-10-09T01:53:36.737Z,70.88
2022-10-09T01:56:14.113Z,71.05
2022-10-09T01:59:18.868Z,71.13
2022-10-09T02:01:52.036Z,71.03
2022-10-09T02:04:24.728Z,71.16
2022-10-09T02:06:56.937Z,71.49
2022-10-09T02:09:30.272Z,71.88
2022-10-09T02:12:07.383Z,71.60
2022-10-09T02:14:39.575Z,71.96
2022-10-09T02:17:21.888Z,71.88
2022-10-09T02:20:08.398Z,71.87
2022-10-09T02:22:41.085Z,71.85
2022-10-09T02:25:13.419Z,71.75
2022-10-09T02:27:46.859Z,72.05
2022-10-09T02:30:20.858Z,72.16
2022-10-09T02:32:53.701Z,72.10
2022-10-09T02:35:25.990Z,72.38
2022-10-09T02:37:57.713Z,71.69
2022-10-09T02:40:29.693Z,72.58
2022-10-09T02:43:02.269Z,71.96
2022-10-09T02:45:36.838Z,71.98
2022-10-09T02:48:12.211Z,72.05
2022-10-09T02:50:43.912Z,71.92
2022-10-09T02:53:15.572Z,71.33
2022-10-09T02:55:47.265Z,71.75
2022-10-09T02:58:19.088Z,71.56
2022-10-09T03:00:53.031Z,71.66
2022-10-09T03:03:24.801Z,72.00
2022-10-09T03:06:13.769Z,72.26
2022-10-09T03:08:47.562Z,71.57
2022-10-09T03:11:21.464Z,72.13
2022-10-09T03:13:56.253Z,72.20
2022-10-09T03:16:27.918Z,72.17
2022-10-09T03:19:00.154Z,72.41
2022-10-09T03:21:31.844Z,72.17
2022-10-09T03:24:03.589Z,71.85
2022-10-09T03:26:35.258Z,71.92
2022-10-09T03:29:06.944Z,71.85
2022-10-09T03:31:54.087Z,72.24
2022-10-09T03:34:27.943Z,71.90
2022-10-09T03:36:59.519Z,72.21
2022-10-09T03:39:31.581Z,72.26
2022-10-09T03:42:03.360Z,72.49
2022-10-09T03:44:35.076Z,71.92
2022-10-09T03:47:07.255Z,72.39
2022-10-09T03:49:38.931Z,72.43
2022-10-09T03:52:10.590Z,72.61
2022-10-09T03:54:42.286Z,72.39
2022-10-09T03:57:15.940Z,72.65
2022-10-09T03:59:47.613Z,72.59
2022-10-09T04:02:19.325Z,72.23
2022-10-09T04:04:51.083Z,72.09
2022-10-09T04:07:28.114Z,72.39
2022-10-09T04:09:59.931Z,72.25
2022-10-09T04:12:31.697Z,72.15
2022-10-09T04:15:04.322Z,72.53
2022-10-09T04:17:36.525Z,72.73
2022-10-09T04:20:09.771Z,72.95
2022-10-09T04:22:41.592Z,72.83
2022-10-09T04:25:13.446Z,72.42
2022-10-09T04:27:45.157Z,73.00
2022-10-09T04:30:20.817Z,72.65
2022-10-09T04:32:52.579Z,73.12
2022-10-09T04:35:24.308Z,72.48
2022-10-09T04:37:56.045Z,72.58
2022-10-09T04:40:27.695Z,72.53
2022-10-09T04:42:59.472Z,72.88
2022-10-09T04:45:31.315Z,72.36
2022-10-09T04:48:03.176Z,73.13
2022-10-09T04:50:39.008Z,72.99
2022-10-09T04:53:10.746Z,72.49
2022-10-09T04:55:46.483Z,72.25
2022-10-09T04:58:18.161Z,72.64
2022-10-09T05:00:49.850Z,72.61
2022-10-09T05:03:21.632Z,72.57
2022-10-09T05:05:53.321Z,72.76
2022-10-09T05:08:25.040Z,72.55
2022-10-09T05:11:05.428Z,73.20
2022-10-09T05:13:40.393Z,72.86
2022-10-09T05:16:15.274Z,73.20
2022-10-09T05:18:49.460Z,72.57
2022-10-09T05:21:21.669Z,72.92
2022-10-09T05:23:54.868Z,72.34
2022-10-09T05:26:27.784Z,72.73
2022-10-09T05:28:59.742Z,73.42
2022-10-09T05:31:31.947Z,73.41
2022-10-09T05:34:09.704Z,72.61
2022-10-09T05:36:41.385Z,72.80
2022-10-09T05:39:13.240Z,72.24
2022-10-09T05:41:44.982Z,72.07
2022-10-09T05:44:16.767Z,70.33
2022-10-09T05:46:48.525Z,67.94
2022-10-09T05:49:20.313Z,66.36
2022-10-09T05:51:52.027Z,63.36
2022-10-09T05:54:23.816Z,60.43
2022-10-09T05:56:55.699Z,57.32
2022-10-09T05:59:27.942Z,54.77
2022-10-09T06:02:00.047Z,51.46
2022-10-09T06:04:31.961Z,48.48
2022-10-09T06:07:03.732Z,46.05
2022-10-09T06:09:35.466Z,43.18
2022-10-09T06:12:07.663Z,40.70
2022-10-09T06:14:39.359Z,38.15
2022-10-09T06:17:11.145Z,36.96
2022-10-09T06:19:42.877Z,35.48
2022-10-09T06:22:14.520Z,34.68
2022-10-09T06:24:46.204Z,31.96
2022-10-09T06:27:17.911Z,31.82
2022-10-09T06:29:49.639Z,31.18
2022-10-09T06:32:21.429Z,30.68
2022-10-09T06:34:53.532Z,30.05
2022-10-09T06:37:25.247Z,28.96
2022-10-09T06:39:56.979Z,28.21
2022-10-09T06:42:28.720Z,28.09
2022-10-09T06:45:02.672Z,26.80
2022-10-09T06:47:36.916Z,27.81
2022-10-09T06:50:09.358Z,27.44
2022-10-09T06:52:41.039Z,27.82
2022-10-09T06:55:15.786Z,28.51
2022-10-09T06:57:47.498Z,29.14
2022-10-09T07:00:19.203Z,29.39
2022-10-09T07:02:51.524Z,30.10
2022-10-09T07:05:23.925Z,30.18
2022-10-09T07:07:56.468Z,30.33
2022-10-09T07:10:28.159Z,30.62
2022-10-09T07:12:59.846Z,30.12
2022-10-09T07:15:31.679Z,30.68
2022-10-09T07:18:03.458Z,30.19
2022-10-09T07:20:36.384Z,30.68
2022-10-09T07:23:10.003Z,30.73
2022-10-09T07:25:44.407Z,30.68
2022-10-09T07:28:16.212Z,30.71
2022-10-09T07:30:48.116Z,30.91
2022-10-09T07:33:20.308Z,30.81
2022-10-09T07:35:56.570Z,30.69
2022-10-09T07:38:29.106Z,31.13
2022-10-09T07:41:03.113Z,31.23
2022-10-09T07:43:36.986Z,31.29
2022-10-09T07:46:12.863Z,31.66
2022-10-09T07:48:45.868Z,32.07
2022-10-09T07:51:20.628Z,32.35
2022-10-09T07:53:53.241Z,33.19
2022-10-09T07:56:31.164Z,33.26
2022-10-09T07:59:06.250Z,33.50
2022-10-09T08:01:39.133Z,33.60
2022-10-09T08:04:10.921Z,34.00
2022-10-09T08:06:42.783Z,33.11
2022-10-09T08:09:14.452Z,32.05
2022-10-09T08:11:49.025Z,31.07
2022-10-09T08:14:20.783Z,31.21
2022-10-09T08:16:52.683Z,31.03
2022-10-09T08:19:27.408Z,30.22
2022-10-09T08:22:02.639Z,30.42
2022-10-09T08:24:39.081Z,30.37
2022-10-09T08:27:11.971Z,31.10
2022-10-09T08:29:43.622Z,30.85
2022-10-09T08:32:15.329Z,30.39
2022-10-09T08:34:48.248Z,30.06
2022-10-09T08:37:20.016Z,29.40
2022-10-09T08:39:51.895Z,28.99
2022-10-09T08:42:42.956Z,28.87
2022-10-09T08:45:18.268Z,28.73
2022-10-09T08:48:01.257Z,28.16
2022-10-09T08:50:38.034Z,27.79
2022-10-09T08:53:47.418Z,28.00
2022-10-09T08:56:19.378Z,29.33
2022-10-09T08:58:51.085Z,28.86
2022-10-09T09:02:10.932Z,28.49
2022-10-09T09:05:05.173Z,28.14
2022-10-09T09:07:54.863Z,28.56
2022-10-09T09:10:32.223Z,29.30
2022-10-09T09:13:39.518Z,29.41
2022-10-09T09:16:21.321Z,29.89
2022-10-09T09:19:03.715Z,31.45
2022-10-09T09:21:48.525Z,31.05
2022-10-09T09:24:39.837Z,31.70
2022-10-09T09:27:16.131Z,31.33
2022-10-09T09:30:15.259Z,30.93
2022-10-09T09:32:56.999Z,31.08
2022-10-09T09:35:47.065Z,31.50
2022-10-09T09:38:18.805Z,32.44
2022-10-09T09:40:51.320Z,32.39
2022-10-09T09:43:25.707Z,31.79
2022-10-09T09:46:00.694Z,31.40
2022-10-09T09:48:34.727Z,32.20
2022-10-09T09:51:27.906Z,31.89
2022-10-09T09:54:15.296Z,30.73
2022-10-09T09:57:10.998Z,30.62
2022-10-09T09:59:43.155Z,30.84
2022-10-09T10:02:24.045Z,30.63
2022-10-09T10:04:59.704Z,29.99
2022-10-09T10:07:34.609Z,30.50
2022-10-09T10:10:15.612Z,30.67
2022-10-09T10:12:53.585Z,30.62
2022-10-09T10:15:28.645Z,30.75
2022-10-09T10:18:16.082Z,31.70
2022-10-09T10:20:57.003Z,31.68
2022-10-09T10:23:44.863Z,33.58
2022-10-09T10:26:31.994Z,33.83
2022-10-09T10:29:18.577Z,33.90
2022-10-09T10:32:16.007Z,33.11
2022-10-09T10:34:57.735Z,32.69
2022-10-09T10:38:07.085Z,32.24
2022-10-09T10:40:47.162Z,32.72
2022-10-09T10:43:32.715Z,33.01
2022-10-09T10:46:25.597Z,32.42
2022-10-09T10:49:00.042Z,31.99
2022-10-09T10:51:55.793Z,31.82
2022-10-09T10:54:40.545Z,30.85
2022-10-09T10:57:30.819Z,31.28
2022-10-09T11:00:07.859Z,32.34
2022-10-09T11:02:49.145Z,33.32
2022-10-09T11:05:25.482Z,33.30
2022-10-09T11:08:20.741Z,33.43
2022-10-09T11:11:16.932Z,33.12
2022-10-09T11:14:00.303Z,32.31
2022-10-09T11:16:38.025Z,33.73
2022-10-09T11:19:47.036Z,33.95
2022-10-09T11:22:32.132Z,33.37
2022-10-09T11:25:10.514Z,32.36
2022-10-09T11:28:03.571Z,31.73
2022-10-09T11:30:44.120Z,32.67
2022-10-09T11:33:43.986Z,31.78
2022-10-09T11:36:25.877Z,31.75
2022-10-09T11:39:06.361Z,31.72
2022-10-09T11:41:39.210Z,32.14
2022-10-09T11:44:52.005Z,31.11
2022-10-09T11:47:58.920Z,32.16
2022-10-09T11:50:36.451Z,32.10
2022-10-09T11:53:18.663Z,33.26
2022-10-09T11:56:02.313Z,33.96
2022-10-09T11:58:34.842Z,32.89
2022-10-09T12:01:40.686Z,33.05
2022-10-09T12:04:12.653Z,31.91
2022-10-09T12:07:00.741Z,30.67
2022-10-09T12:09:37.872Z,31.24
2022-10-09T12:12:15.554Z,32.19
2022-10-09T12:14:50.421Z,31.83
2022-10-09T12:17:22.120Z,31.56
2022-10-09T12:20:00.915Z,31.34
2022-10-09T12:22:42.867Z,32.02
2022-10-09T12:25:26.491Z,31.91
2022-10-09T12:28:00.376Z,32.30
2022-10-09T12:30:47.535Z,33.33
2022-10-09T12:33:34.951Z,32.05
2022-10-09T12:36:15.671Z,31.17
2022-10-09T12:38:49.512Z,31.72
2022-10-09T12:41:30.132Z,32.12
2022-10-09T12:44:29.283Z,32.32
2022-10-09T12:47:14.627Z,31.90
2022-10-09T12:50:18.502Z,31.40
2022-10-09T12:52:57.972Z,32.18
2022-10-09T12:55:41.979Z,33.42
2022-10-09T12:58:23.504Z,33.02
2022-10-09T13:00:58.275Z,33.21
2022-10-09T13:03:32.820Z,33.67
2022-10-09T13:06:05.758Z,34.73
2022-10-09T13:08:59.980Z,34.56
2022-10-09T13:11:33.657Z,34.36
2022-10-09T13:14:05.326Z,33.91
2022-10-09T13:16:43.187Z,34.56
2022-10-09T13:19:27.012Z,33.78
2022-10-09T13:22:07.587Z,33.92
2022-10-09T13:24:39.285Z,34.41
2022-10-09T13:27:14.694Z,34.39
2022-10-09T13:29:48.090Z,35.37
2022-10-09T13:32:24.346Z,35.10
2022-10-09T13:34:57.961Z,36.28
2022-10-09T13:37:29.738Z,34.66
2022-10-09T13:40:01.467Z,35.34
2022-10-09T13:42:39.421Z,35.74
2022-10-09T13:45:11.420Z,36.31
2022-10-09T13:47:43.083Z,36.44
2022-10-09T13:50:15.720Z,36.72
2022-10-09T13:52:47.551Z,36.97
2022-10-09T13:55:19.353Z,36.84
2022-10-09T13:57:51.671Z,36.64
2022-10-09T14:00:23.775Z,36.26
2022-10-09T14:02:55.512Z,36.54
2022-10-09T14:05:27.224Z,37.13
2022-10-09T14:07:59.219Z,37.27
2022-10-09T14:10:30.832Z,37.69
2022-10-09T14:13:02.741Z,37.76
2022-10-09T14:15:34.449Z,38.11
2022-10-09T14:18:06.445Z,38.24
2022-10-09T14:20:38.100Z,38.32
2022-10-09T14:23:09.859Z,38.31
2022-10-09T14:25:41.972Z,38.69
2022-10-09T14:28:13.759Z,38.67
2022-10-09T14:30:49.009Z,38.98
2022-10-09T14:33:20.887Z,39.32
2022-10-09T14:35:52.706Z,39.14
2022-10-09T14:38:24.848Z,39.46
2022-10-09T14:40:56.503Z,39.74
2022-10-09T14:43:28.264Z,40.01
2022-10-09T14:46:07.513Z,40.05
2022-10-09T14:48:39.997Z,40.46
2022-10-09T14:51:14.789Z,40.66
2022-10-09T14:53:47.234Z,40.42
2022-10-09T14:56:21.221Z,40.25
2022-10-09T14:58:53.867Z,40.53
2022-10-09T15:01:34.321Z,40.63
2022-10-09T15:04:07.013Z,41.05
2022-10-09T15:06:39.191Z,41.24
2022-10-09T15:09:11.128Z,41.74
2022-10-09T15:11:42.950Z,42.07
2022-10-09T15:14:14.748Z,42.50
2022-10-09T15:16:47.029Z,42.28
2022-10-09T15:19:19.119Z,40.87
2022-10-09T15:21:51.856Z,40.84
2022-10-09T15:24:23.658Z,40.94
2022-10-09T15:26:55.428Z,40.93
2022-10-09T15:29:27.154Z,41.47
2022-10-09T15:31:58.996Z,41.83
2022-10-09T15:34:30.974Z,42.16
2022-10-09T15:37:02.612Z,42.17
2022-10-09T15:39:35.121Z,42.65
2022-10-09T15:42:07.168Z,42.69
2022-10-09T15:44:41.392Z,42.92
2022-10-09T15:47:16.715Z,43.25
2022-10-09T15:49:53.228Z,43.48
2022-10-09T15:52:25.490Z,43.74
2022-10-09T15:54:57.181Z,44.15
2022-10-09T15:57:28.852Z,44.23
2022-10-09T16:00:03.215Z,44.71
2022-10-09T16:02:36.665Z,44.64
2022-10-09T16:05:09.163Z,44.98
2022-10-09T16:07:41.393Z,45.43
2022-10-09T16:10:13.104Z,45.83
2022-10-09T16:12:44.949Z,46.44
2022-10-09T16:15:16.886Z,46.39
2022-10-09T16:17:50.850Z,46.37
2022-10-09T16:20:22.676Z,46.78
2022-10-09T16:22:54.341Z,47.03
2022-10-09T16:25:26.272Z,47.39
2022-10-09T16:27:57.964Z,47.51
2022-10-09T16:30:29.728Z,48.07
2022-10-09T16:33:01.529Z,47.98
2022-10-09T16:35:33.317Z,48.10
2022-10-09T16:38:05.851Z,48.44
2022-10-09T16:43:36.739Z,48.04
2022-10-09T16:46:27.384Z,49.07
2022-10-09T16:49:01.123Z,48.72
2022-10-09T16:51:35.833Z,49.34
2022-10-09T16:54:07.527Z,49.73
2022-10-09T16:56:40.375Z,49.77
2022-10-09T16:59:13.062Z,50.05
2022-10-09T17:01:46.458Z,50.07
2022-10-09T17:04:18.174Z,50.34
2022-10-09T17:06:51.269Z,50.77
2022-10-09T17:09:23.181Z,51.51
2022-10-09T17:11:57.780Z,51.47
2022-10-09T17:14:31.401Z,51.35
2022-10-09T17:17:08.014Z,51.75
2022-10-09T17:19:40.616Z,51.77
2022-10-09T17:22:12.359Z,52.09
2022-10-09T17:24:44.039Z,52.45
2022-10-09T17:27:15.928Z,52.57
2022-10-09T17:29:47.696Z,52.76
2022-10-09T17:32:22.722Z,53.12
2022-10-09T17:34:54.426Z,53.29
2022-10-09T17:37:26.251Z,53.58
2022-10-09T17:39:57.886Z,53.37
2022-10-09T17:42:29.599Z,53.92
2022-10-09T17:45:02.056Z,54.02
2022-10-09T17:47:37.010Z,53.98
2022-10-09T17:50:09.082Z,54.36
2022-10-09T17:52:40.800Z,54.59
2022-10-09T17:55:12.571Z,54.42
2022-10-09T17:57:44.356Z,54.97
2022-10-09T18:00:22.490Z,55.39
2022-10-09T18:02:54.818Z,55.24
2022-10-09T18:05:26.680Z,55.26
2022-10-09T18:08:01.158Z,55.34
2022-10-09T18:10:32.973Z,55.69
2022-10-09T18:13:06.060Z,55.97
2022-10-09T18:15:38.742Z,55.91
2022-10-09T18:18:11.565Z,56.11
2022-10-09T18:20:43.234Z,56.48
2022-10-09T18:23:17.475Z,56.29
2022-10-09T18:25:54.951Z,56.77
2022-10-09T18:30:58.925Z,56.44
2022-10-09T18:33:30.685Z,56.57
2022-10-09T18:36:09.032Z,57.08
2022-10-09T18:38:40.739Z,57.03
2022-10-09T18:41:12.569Z,57.50
2022-10-09T18:43:44.643Z,57.27
2022-10-09T18:46:20.960Z,57.39
2022-10-09T18:48:54.536Z,57.74
2022-10-09T18:51:28.588Z,58.03
2022-10-09T18:54:03.689Z,58.00
2022-10-09T18:56:36.974Z,58.00
2022-10-09T18:59:13.028Z,57.72
2022-10-09T19:01:44.795Z,57.93
2022-10-09T19:04:17.040Z,57.66
2022-10-09T19:06:52.240Z,57.51
2022-10-09T19:09:24.049Z,57.74
2022-10-09T19:11:55.925Z,57.83
2022-10-09T19:14:27.995Z,57.73
2022-10-09T19:16:59.785Z,57.69
2022-10-09T19:19:32.113Z,57.76
2022-10-09T19:22:04.781Z,57.77
2022-10-09T19:24:36.685Z,58.14
2022-10-09T19:27:08.588Z,57.62
2022-10-09T19:29:40.627Z,57.62
2022-10-09T19:32:12.371Z,58.02
2022-10-09T19:34:47.890Z,57.92
2022-10-09T19:37:26.110Z,58.40
2022-10-09T19:40:01.497Z,58.30
2022-10-09T19:42:35.617Z,58.30
2022-10-09T19:45:08.025Z,58.75
2022-10-09T19:47:43.121Z,58.89
2022-10-09T19:50:15.174Z,59.49
2022-10-09T19:52:47.094Z,59.35
2022-10-09T19:55:19.054Z,59.45
2022-10-09T19:57:51.394Z,59.69
2022-10-09T20:00:26.421Z,60.26
2022-10-09T20:02:58.188Z,60.30
2022-10-09T20:05:30.220Z,60.60
2022-10-09T20:08:04.957Z,60.85
2022-10-09T20:10:38.445Z,61.16
2022-10-09T20:13:10.158Z,61.18
2022-10-09T20:15:42.779Z,61.24
2022-10-09T20:18:14.490Z,61.38
2022-10-09T20:20:48.402Z,61.90
2022-10-09T20:23:20.431Z,62.01
2022-10-09T20:26:06.212Z,62.29
2022-10-09T20:28:41.414Z,62.38
2022-10-09T20:31:20.815Z,62.45
2022-10-09T20:33:54.396Z,62.58
2022-10-09T20:36:27.684Z,62.58
2022-10-09T20:39:01.527Z,62.54
2022-10-09T20:41:33.854Z,62.51
2022-10-09T20:44:06.301Z,62.64
2022-10-09T20:46:39.663Z,63.01
2022-10-09T20:49:16.361Z,63.39
2022-10-09T20:51:48.190Z,63.09
2022-10-09T20:54:21.462Z,63.57
2022-10-09T20:56:53.378Z,63.50
2022-10-09T20:59:25.057Z,63.55
2022-10-09T21:01:56.952Z,64.28
2022-10-09T21:04:32.146Z,63.94
2022-10-09T21:07:04.103Z,64.45
2022-10-09T21:09:36.532Z,64.57
2022-10-09T21:12:08.519Z,64.49
2022-10-09T21:14:40.291Z,65.06
2022-10-09T21:17:13.099Z,65.09
2022-10-09T21:19:44.827Z,64.93
2022-10-09T21:22:16.943Z,65.31
2022-10-09T21:24:51.401Z,65.27
2022-10-09T21:27:23.159Z,65.25
2022-10-09T21:29:54.788Z,65.41
2022-10-09T21:32:26.577Z,65.55
2022-10-09T21:34:58.221Z,65.42
2022-10-09T21:37:30.057Z,66.05
2022-10-09T21:40:01.826Z,66.18
2022-10-09T21:42:33.613Z,66.79
2022-10-09T21:45:05.728Z,66.19
2022-10-09T21:47:37.474Z,66.54
2022-10-09T21:50:09.757Z,67.00
2022-10-09T21:52:41.463Z,67.08
2022-10-09T21:55:13.111Z,66.97
2022-10-09T21:57:45.285Z,66.66
2022-10-09T22:00:17.537Z,67.07
2022-10-09T22:02:49.493Z,67.43
2022-10-09T22:05:24.094Z,67.22
2022-10-09T22:07:55.744Z,67.28
2022-10-09T22:10:27.610Z,67.48
2022-10-09T22:12:59.254Z,67.49
2022-10-09T22:15:31.002Z,67.84
2022-10-09T22:18:02.734Z,68.38
2022-10-09T22:20:34.664Z,68.34
2022-10-09T22:23:06.408Z,68.09
2022-10-09T22:25:38.536Z,68.43
2022-10-09T22:28:10.248Z,68.53
2022-10-09T22:30:41.975Z,68.47
2022-10-09T22:33:13.708Z,68.65
2022-10-09T22:35:45.812Z,68.72
2022-10-09T22:38:17.503Z,69.09
2022-10-09T22:40:52.192Z,69.54
2022-10-09T22:43:26.764Z,68.67
2022-10-09T22:45:58.445Z,69.02
2022-10-09T22:48:30.244Z,69.74
2022-10-09T22:51:04.027Z,69.71
2022-10-09T22:53:37.043Z,69.80
2022-10-09T22:56:16.011Z,70.42
2022-10-09T22:58:49.339Z,69.85
2022-10-09T23:01:29.931Z,69.86
2022-10-09T23:04:11.166Z,69.40
2022-10-09T23:06:44.599Z,69.50
2022-10-09T23:09:16.372Z,69.40
2022-10-09T23:11:48.047Z,69.70
2022-10-09T23:14:20.063Z,69.47
2022-10-09T23:16:52.064Z,69.47
2022-10-09T23:19:23.820Z,69.43
2022-10-09T23:21:55.405Z,69.38
2022-10-09T23:24:27.075Z,69.04
2022-10-09T23:26:58.762Z,70.11
2022-10-09T23:29:30.449Z,69.63
2022-10-09T23:32:02.073Z,69.22
2022-10-09T23:34:33.833Z,69.78
2022-10-09T23:37:05.541Z,69.53
2022-10-09T23:39:37.223Z,70.11
2022-10-09T23:42:08.920Z,70.28
2022-10-09T23:44:40.750Z,69.59
2022-10-09T23:47:12.496Z,69.87
2022-10-09T23:49:44.204Z,69.49
2022-10-09T23:52:15.823Z,70.22
2022-10-09T23:54:47.611Z,70.09
2022-10-09T23:57:19.235Z,69.93
2022-10-09T23:59:50.937Z,70.30
